createdAt,value
2019-03-23T00:02:06.929Z,8.77
2019-03-23T00:04:36.309Z,8.71
2019-03-23T00:07:05.860Z,8.62
2019-03-23T00:09:35.212Z,8.51
2019-03-23T00:12:04.705Z,8.52
2019-03-23T00:14:34.054Z,8.49
2019-03-23T00:17:03.538Z,8.54
2019-03-23T00:19:32.940Z,8.51
2019-03-23T00:22:02.372Z,8.12
2019-03-23T00:24:32.248Z,8.24
2019-03-23T00:27:03.009Z,8.33
2019-03-23T00:29:32.545Z,8.12
2019-03-23T00:32:02.248Z,8.11
2019-03-23T00:34:31.610Z,8.25
2019-03-23T00:37:01.101Z,8.21
2019-03-23T00:39:30.523Z,8.15
2019-03-23T00:41:59.982Z,8.02
2019-03-23T00:44:29.429Z,7.99
2019-03-23T00:46:58.789Z,7.99
2019-03-23T00:49:28.191Z,7.96
2019-03-23T00:51:57.521Z,7.79
2019-03-23T00:54:26.861Z,7.74
2019-03-23T00:56:56.364Z,7.82
2019-03-23T00:59:25.808Z,7.80
2019-03-23T01:01:55.207Z,7.77
2019-03-23T01:04:24.685Z,7.66
2019-03-23T01:20:12.063Z,8.10
2019-03-23T01:22:42.722Z,7.93
2019-03-23T01:25:12.440Z,8.00
2019-03-23T01:27:41.799Z,7.96
2019-03-23T01:30:11.848Z,8.36
2019-03-23T01:32:41.239Z,8.08
2019-03-23T01:35:10.778Z,7.97
2019-03-23T01:37:40.222Z,7.96
2019-03-23T01:40:10.308Z,7.92
2019-03-23T01:42:39.655Z,7.87
2019-03-23T01:45:09.569Z,7.78
2019-03-23T01:47:38.973Z,7.76
2019-03-23T01:50:08.745Z,7.69
2019-03-23T01:52:38.067Z,7.28
2019-03-23T01:55:08.251Z,7.14
2019-03-23T01:57:37.646Z,7.47
2019-03-23T02:00:08.570Z,7.27
2019-03-23T02:02:38.359Z,7.39
2019-03-23T02:05:08.572Z,7.38
2019-03-23T02:07:38.058Z,7.39
2019-03-23T02:10:08.109Z,7.70
2019-03-23T02:12:37.636Z,7.98
2019-03-23T02:15:08.058Z,8.13
2019-03-23T02:17:37.595Z,8.26
2019-03-23T02:20:07.696Z,8.35
2019-03-23T02:22:37.311Z,8.30
2019-03-23T02:25:07.639Z,8.33
2019-03-23T02:27:36.994Z,8.40
2019-03-23T02:30:07.206Z,8.41
2019-03-23T02:32:36.817Z,8.24
2019-03-23T02:35:07.214Z,8.28
2019-03-23T02:37:36.624Z,8.26
2019-03-23T02:40:06.863Z,8.33
2019-03-23T02:42:39.651Z,8.09
2019-03-23T02:45:09.940Z,8.05
2019-03-23T02:47:39.398Z,8.11
2019-03-23T02:50:08.957Z,8.12
2019-03-23T02:52:38.516Z,8.03
2019-03-23T02:55:09.966Z,8.04
2019-03-23T02:57:39.398Z,8.07
2019-03-23T03:00:09.876Z,7.80
2019-03-23T03:02:39.518Z,7.84
2019-03-23T03:05:09.367Z,7.86
2019-03-23T03:07:42.637Z,7.76
2019-03-23T03:10:10.761Z,7.61
2019-03-23T03:12:40.676Z,7.61
2019-03-23T03:15:10.343Z,7.68
2019-03-23T03:17:39.746Z,7.70
2019-03-23T03:20:09.931Z,7.23
2019-03-23T03:22:41.003Z,7.56
2019-03-23T03:25:10.612Z,7.41
2019-03-23T03:31:08.425Z,7.26
2019-03-23T03:33:37.804Z,7.39
2019-03-23T03:36:07.278Z,7.21
2019-03-23T03:38:36.845Z,7.28
2019-03-23T03:41:06.460Z,7.24
2019-03-23T03:43:35.822Z,7.21
2019-03-23T03:46:05.261Z,7.18
2019-03-23T03:48:34.708Z,7.26
2019-03-23T03:51:04.158Z,7.18
2019-03-23T03:53:33.648Z,7.02
2019-03-23T03:56:02.992Z,7.10
2019-03-23T03:58:32.379Z,7.10
2019-03-23T04:01:04.714Z,7.04
2019-03-23T04:03:34.065Z,6.95
2019-03-23T04:06:03.729Z,7.19
2019-03-23T04:08:33.091Z,7.02
2019-03-23T04:11:02.457Z,7.15
2019-03-23T04:13:31.848Z,7.20
2019-03-23T04:16:01.238Z,7.08
2019-03-23T04:18:30.582Z,7.14
2019-03-23T04:21:00.031Z,7.24
2019-03-23T04:23:29.362Z,7.04
2019-03-23T04:25:59.108Z,6.83
2019-03-23T04:28:28.519Z,7.05
2019-03-23T04:30:57.910Z,6.75
2019-03-23T04:33:27.286Z,6.68
2019-03-23T04:35:56.770Z,6.74
2019-03-23T04:38:26.562Z,6.74
2019-03-23T04:40:55.932Z,6.73
2019-03-23T04:43:25.817Z,6.71
2019-03-23T04:45:55.207Z,6.92
2019-03-23T04:48:24.608Z,6.90
2019-03-23T04:50:54.140Z,6.89
2019-03-23T04:53:23.892Z,6.60
2019-03-23T04:55:53.511Z,6.86
2019-03-23T04:58:22.987Z,6.81
2019-03-23T05:00:58.567Z,6.89
2019-03-23T05:03:28.181Z,6.95
2019-03-23T05:05:57.752Z,6.83
2019-03-23T05:08:33.313Z,6.92
2019-03-23T05:10:58.524Z,6.85
2019-03-23T05:13:28.076Z,6.83
2019-03-23T05:15:57.521Z,6.90
2019-03-23T05:18:27.995Z,6.94
2019-03-23T05:20:57.799Z,6.97
2019-03-23T05:23:27.295Z,6.68
2019-03-23T05:25:56.898Z,6.73
2019-03-23T05:28:26.718Z,6.82
2019-03-23T05:30:56.144Z,6.86
2019-03-23T05:33:25.511Z,6.99
2019-03-23T05:35:54.968Z,7.03
2019-03-23T05:38:24.412Z,6.90
2019-03-23T05:40:53.922Z,6.92
2019-03-23T05:43:23.356Z,6.79
2019-03-23T05:45:52.830Z,6.96
2019-03-23T05:48:22.252Z,6.75
2019-03-23T05:54:19.956Z,6.91
2019-03-23T05:56:49.751Z,6.65
2019-03-23T05:59:19.144Z,6.80
2019-03-23T06:01:48.601Z,6.92
2019-03-23T06:04:18.149Z,6.97
2019-03-23T06:06:47.685Z,6.91
2019-03-23T06:09:23.132Z,6.90
2019-03-23T06:11:51.574Z,6.89
2019-03-23T06:14:21.236Z,6.94
2019-03-23T06:16:52.895Z,6.95
2019-03-23T06:19:22.538Z,7.05
2019-03-23T06:21:51.997Z,7.06
2019-03-23T06:24:21.380Z,6.93
2019-03-23T06:26:51.296Z,6.97
2019-03-23T06:29:20.669Z,7.03
2019-03-23T06:31:50.095Z,6.99
2019-03-23T06:34:19.493Z,7.07
2019-03-23T06:36:48.935Z,7.04
2019-03-23T06:39:18.343Z,7.12
2019-03-23T06:41:48.951Z,7.08
2019-03-23T06:44:18.532Z,7.01
2019-03-23T06:46:47.978Z,7.06
2019-03-23T06:49:17.381Z,7.11
2019-03-23T06:51:46.909Z,7.04
2019-03-23T06:54:16.316Z,7.10
2019-03-23T06:56:45.804Z,6.95
2019-03-23T06:59:15.230Z,6.94
2019-03-23T07:01:44.652Z,6.97
2019-03-23T07:04:14.005Z,6.93
2019-03-23T07:06:43.489Z,7.09
2019-03-23T07:09:16.379Z,6.96
2019-03-23T07:11:44.106Z,6.98
2019-03-23T07:14:13.594Z,7.13
2019-03-23T07:16:42.920Z,7.17
2019-03-23T07:19:12.364Z,7.26
2019-03-23T07:21:42.815Z,7.18
2019-03-23T07:24:12.386Z,7.25
2019-03-23T07:26:41.731Z,7.36
2019-03-23T07:29:14.129Z,7.28
2019-03-23T07:31:43.249Z,7.29
2019-03-23T07:34:12.604Z,7.33
2019-03-23T07:36:43.033Z,7.41
2019-03-23T07:39:12.384Z,7.52
2019-03-23T07:41:41.899Z,7.44
2019-03-23T07:44:11.253Z,7.39
2019-03-23T07:46:43.636Z,7.52
2019-03-23T07:49:13.001Z,7.34
2019-03-23T07:51:45.070Z,7.45
2019-03-23T07:54:14.753Z,7.39
2019-03-23T07:56:44.123Z,7.34
2019-03-23T08:02:48.296Z,7.46
2019-03-23T08:05:17.464Z,7.58
2019-03-23T08:07:46.962Z,7.64
2019-03-23T08:10:32.164Z,7.57
2019-03-23T08:13:01.621Z,7.77
2019-03-23T08:15:31.229Z,7.78
2019-03-23T08:18:00.720Z,7.69
2019-03-23T08:20:30.407Z,7.84
2019-03-23T08:22:59.968Z,7.77
2019-03-23T08:25:29.398Z,7.85
2019-03-23T08:27:58.813Z,7.83
2019-03-23T08:30:28.183Z,7.90
2019-03-23T08:32:57.601Z,7.87
2019-03-23T08:35:27.010Z,8.07
2019-03-23T08:37:56.815Z,7.82
2019-03-23T08:40:31.389Z,7.92
2019-03-23T08:43:01.850Z,7.83
2019-03-23T08:45:31.358Z,7.95
2019-03-23T08:48:01.113Z,7.85
2019-03-23T08:50:30.624Z,8.05
2019-03-23T08:53:07.353Z,8.10
2019-03-23T08:55:36.782Z,8.16
2019-03-23T08:58:06.164Z,8.08
2019-03-23T09:00:35.517Z,8.23
2019-03-23T09:03:06.063Z,7.99
2019-03-23T09:05:35.456Z,7.96
2019-03-23T09:08:04.985Z,8.04
2019-03-23T09:10:34.469Z,8.17
2019-03-23T09:13:03.951Z,8.14
2019-03-23T09:15:33.298Z,8.22
2019-03-23T09:18:51.312Z,8.23
2019-03-23T09:29:09.711Z,8.39
2019-03-23T09:31:39.179Z,8.47
2019-03-23T09:34:08.921Z,8.46
2019-03-23T09:36:38.288Z,8.45
2019-03-23T09:39:08.227Z,8.36
2019-03-23T09:41:37.631Z,8.39
2019-03-23T09:44:07.362Z,8.50
2019-03-23T09:46:36.747Z,8.56
2019-03-23T09:49:06.096Z,8.60
2019-03-23T09:51:35.521Z,8.59
2019-03-23T09:54:05.211Z,8.63
2019-03-23T09:56:34.534Z,8.69
2019-03-23T09:59:06.241Z,8.73
2019-03-23T10:01:35.577Z,8.81
2019-03-23T10:04:05.002Z,8.89
2019-03-23T10:06:36.283Z,8.98
2019-03-23T10:09:07.022Z,8.94
2019-03-23T10:11:39.293Z,8.96
2019-03-23T10:14:08.681Z,8.73
2019-03-23T10:16:38.206Z,8.95
2019-03-23T10:19:07.900Z,8.89
2019-03-23T10:21:38.768Z,8.87
2019-03-23T10:24:08.193Z,8.71
2019-03-23T10:26:37.688Z,8.75
2019-03-23T10:29:07.785Z,8.81
2019-03-23T10:31:41.040Z,8.43
2019-03-23T10:34:23.777Z,8.89
2019-03-23T10:37:14.819Z,8.89
2019-03-23T10:42:59.997Z,8.82
2019-03-23T10:45:29.397Z,8.83
2019-03-23T10:47:58.739Z,8.87
2019-03-23T10:50:28.122Z,8.89
2019-03-23T10:52:57.534Z,8.79
2019-03-23T10:55:26.905Z,8.88
2019-03-23T10:57:56.304Z,8.94
2019-03-23T11:00:25.669Z,8.94
2019-03-23T11:03:00.832Z,8.97
2019-03-23T11:05:31.697Z,9.02
2019-03-23T11:08:11.005Z,8.99
2019-03-23T11:10:41.974Z,9.09
2019-03-23T11:13:11.784Z,9.20
2019-03-23T11:15:41.157Z,9.27
2019-03-23T11:18:10.590Z,9.26
2019-03-23T11:20:40.832Z,9.22
2019-03-23T11:23:11.286Z,9.18
2019-03-23T11:25:40.666Z,9.23
2019-03-23T11:28:11.247Z,9.25
2019-03-23T11:30:40.684Z,9.17
2019-03-23T11:33:10.072Z,9.20
2019-03-23T11:35:39.433Z,9.26
2019-03-23T11:38:08.801Z,9.30
2019-03-23T11:40:38.151Z,9.25
2019-03-23T11:43:11.513Z,9.27
2019-03-23T11:46:21.185Z,9.24
2019-03-23T11:49:04.587Z,9.18
2019-03-23T11:57:38.065Z,8.70
2019-03-23T12:03:37.056Z,9.09
2019-03-23T12:06:06.591Z,9.15
2019-03-23T12:08:37.397Z,9.20
2019-03-23T12:11:07.012Z,9.06
2019-03-23T12:13:36.681Z,9.17
2019-03-23T12:16:06.291Z,9.17
2019-03-23T12:18:35.729Z,9.13
2019-03-23T12:21:05.450Z,9.11
2019-03-23T12:23:34.766Z,9.04
2019-03-23T12:26:05.308Z,9.06
2019-03-23T12:28:34.737Z,9.02
2019-03-23T12:31:04.219Z,8.99
2019-03-23T12:33:33.563Z,9.08
2019-03-23T12:36:02.971Z,9.15
2019-03-23T12:38:32.318Z,9.18
2019-03-23T12:41:11.286Z,9.25
2019-03-23T12:43:33.112Z,9.24
2019-03-23T12:46:02.616Z,9.17
2019-03-23T12:48:32.114Z,9.35
2019-03-23T12:51:01.664Z,9.40
2019-03-23T12:53:31.030Z,9.34
2019-03-23T12:56:00.534Z,9.50
2019-03-23T12:58:29.960Z,9.54
2019-03-23T13:00:59.547Z,9.61
2019-03-23T13:03:28.969Z,9.59
2019-03-23T13:05:58.325Z,9.59
2019-03-23T13:08:27.853Z,9.76
2019-03-23T13:10:57.413Z,9.88
2019-03-23T13:13:26.815Z,9.96
2019-03-23T13:15:56.442Z,10.02
2019-03-23T13:18:27.927Z,9.98
2019-03-23T13:20:57.345Z,10.00
2019-03-23T13:23:26.758Z,10.06
2019-03-23T13:25:56.248Z,10.14
2019-03-23T13:28:25.804Z,10.09
2019-03-23T13:30:55.316Z,10.05
2019-03-23T13:33:24.773Z,10.14
2019-03-23T13:35:54.144Z,10.08
2019-03-23T13:38:23.559Z,10.14
2019-03-23T13:40:53.024Z,10.24
2019-03-23T13:43:22.353Z,10.27
2019-03-23T13:45:51.812Z,10.27
2019-03-23T13:48:21.518Z,10.40
2019-03-23T13:50:50.925Z,10.43
2019-03-23T13:53:20.367Z,10.48
2019-03-23T13:55:49.731Z,10.59
2019-03-23T13:58:19.156Z,10.59
2019-03-23T14:00:48.563Z,10.69
2019-03-23T14:03:17.921Z,10.86
2019-03-23T14:05:47.373Z,10.89
2019-03-23T14:08:16.723Z,10.93
2019-03-23T14:10:46.093Z,11.09
2019-03-23T14:13:15.522Z,11.18
2019-03-23T14:15:45.108Z,11.12
2019-03-23T14:18:17.472Z,11.28
2019-03-23T14:20:46.887Z,11.27
2019-03-23T14:23:16.419Z,11.37
2019-03-23T14:25:45.777Z,11.61
2019-03-23T14:28:15.156Z,11.58
2019-03-23T14:30:45.937Z,11.78
2019-03-23T14:33:15.448Z,12.04
2019-03-23T14:35:45.794Z,12.15
2019-03-23T14:38:15.100Z,12.06
2019-03-23T14:40:44.649Z,12.25
2019-03-23T14:43:14.023Z,12.34
2019-03-23T14:45:43.375Z,12.33
2019-03-23T14:48:12.715Z,12.32
2019-03-23T14:50:42.763Z,11.90
2019-03-23T14:53:12.298Z,12.09
2019-03-23T14:55:42.759Z,12.64
2019-03-23T14:58:12.137Z,12.64
2019-03-23T15:00:41.509Z,12.51
2019-03-23T15:03:10.955Z,12.73
2019-03-23T15:05:40.376Z,12.62
2019-03-23T15:08:10.031Z,12.27
2019-03-23T15:10:39.476Z,12.23
2019-03-23T15:13:08.906Z,12.24
2019-03-23T15:15:38.430Z,12.31
2019-03-23T15:18:07.937Z,12.65
2019-03-23T15:20:37.282Z,12.66
2019-03-23T15:23:06.892Z,13.06
2019-03-23T15:25:36.251Z,13.11
2019-03-23T15:28:05.799Z,13.51
2019-03-23T15:30:35.458Z,13.52
2019-03-23T15:33:04.962Z,13.20
2019-03-23T15:35:34.407Z,12.51
2019-03-23T15:38:03.823Z,12.76
2019-03-23T15:40:33.247Z,13.42
2019-03-23T15:43:02.618Z,12.76
2019-03-23T15:45:33.874Z,12.37
2019-03-23T15:48:03.236Z,12.10
2019-03-23T15:50:32.938Z,13.40
2019-03-23T15:53:02.329Z,14.34
2019-03-23T15:55:31.725Z,17.81
2019-03-23T15:58:01.093Z,18.10
2019-03-23T16:00:30.516Z,19.58
2019-03-23T16:02:59.931Z,14.05
2019-03-23T16:05:29.365Z,13.38
2019-03-23T16:08:00.705Z,14.19
2019-03-23T16:10:30.089Z,18.46
2019-03-23T16:14:44.864Z,12.46
2019-03-23T16:17:15.699Z,11.73
2019-03-23T16:19:45.241Z,11.69
2019-03-23T16:22:14.662Z,13.40
2019-03-23T16:24:44.273Z,13.78
2019-03-23T16:27:13.747Z,13.73
2019-03-23T16:29:43.152Z,16.17
2019-03-23T16:32:12.606Z,13.54
2019-03-23T16:34:42.057Z,15.11
2019-03-23T16:37:11.489Z,14.27
2019-03-23T16:40:03.849Z,12.88
2019-03-23T16:42:33.474Z,11.51
2019-03-23T16:45:03.006Z,11.88
2019-03-23T16:47:32.505Z,10.76
2019-03-23T16:50:05.115Z,10.57
2019-03-23T16:52:46.870Z,10.82
2019-03-23T16:55:07.680Z,10.65
2019-03-23T16:57:56.449Z,10.59
2019-03-23T17:04:08.245Z,10.66
2019-03-23T17:06:46.030Z,9.71
2019-03-23T17:09:09.583Z,10.05
2019-03-23T17:11:39.344Z,10.00
2019-03-23T17:14:10.501Z,10.03
2019-03-23T17:16:41.092Z,10.02
2019-03-23T17:19:26.967Z,9.70
2019-03-23T17:21:56.356Z,9.75
2019-03-23T17:24:26.157Z,9.76
2019-03-23T17:26:55.877Z,9.32
2019-03-23T17:29:25.424Z,9.24
2019-03-23T17:31:54.835Z,9.38
2019-03-23T17:34:24.184Z,9.41
2019-03-23T17:36:53.654Z,9.45
2019-03-23T17:39:23.199Z,9.13
2019-03-23T17:41:53.864Z,9.11
2019-03-23T17:44:23.526Z,9.18
2019-03-23T17:46:52.957Z,9.06
2019-03-23T17:49:23.552Z,9.19
2019-03-23T17:51:55.539Z,8.85
2019-03-23T17:54:25.243Z,9.16
2019-03-23T17:56:55.859Z,8.94
2019-03-23T17:59:37.158Z,9.09
2019-03-23T18:02:09.349Z,9.06
2019-03-23T18:04:41.366Z,9.01
2019-03-23T18:07:27.340Z,8.93
2019-03-23T18:09:57.475Z,8.79
2019-03-23T18:12:27.353Z,8.85
2019-03-23T18:14:57.146Z,8.85
2019-03-23T18:17:26.576Z,8.58
2019-03-23T18:19:56.165Z,8.86
2019-03-23T18:22:25.879Z,8.31
2019-03-23T18:24:55.287Z,8.70
2019-03-23T18:27:24.772Z,8.53
2019-03-23T18:29:58.520Z,8.37
2019-03-23T18:32:35.836Z,8.43
2019-03-23T18:35:06.105Z,8.53
2019-03-23T18:37:35.814Z,8.64
2019-03-23T18:40:08.255Z,8.39
2019-03-23T18:42:37.884Z,8.51
2019-03-23T18:45:07.764Z,8.46
2019-03-23T18:47:39.987Z,8.27
2019-03-23T18:50:09.657Z,8.28
2019-03-23T18:52:40.861Z,8.33
2019-03-23T18:55:10.445Z,8.31
2019-03-23T18:57:39.897Z,8.02
2019-03-23T19:00:11.901Z,7.87
2019-03-23T19:02:41.539Z,8.04
2019-03-23T19:05:11.136Z,7.95
2019-03-23T19:07:40.700Z,8.00
2019-03-23T19:10:10.768Z,7.84
2019-03-23T19:12:40.427Z,7.97
2019-03-23T19:15:16.032Z,7.96
2019-03-23T19:17:45.461Z,7.79
2019-03-23T19:20:14.946Z,7.97
2019-03-23T19:22:45.591Z,7.79
2019-03-23T19:25:18.516Z,7.79
2019-03-23T19:27:49.238Z,7.74
2019-03-23T19:30:19.468Z,7.77
2019-03-23T19:32:49.088Z,7.56
2019-03-23T19:35:18.562Z,7.60
2019-03-23T19:37:47.884Z,7.16
2019-03-23T19:40:17.509Z,7.64
2019-03-23T19:42:46.947Z,7.68
2019-03-23T19:45:16.386Z,7.50
2019-03-23T19:47:45.741Z,7.55
2019-03-23T19:50:15.507Z,7.65
2019-03-23T19:52:48.419Z,7.59
2019-03-23T19:55:18.169Z,7.51
2019-03-23T19:57:47.594Z,7.34
2019-03-23T20:00:17.233Z,7.41
2019-03-23T20:02:46.662Z,7.31
2019-03-23T20:05:16.193Z,7.36
2019-03-23T20:07:46.696Z,7.33
2019-03-23T20:10:16.458Z,7.25
2019-03-23T20:12:45.879Z,7.17
2019-03-23T20:15:15.462Z,7.22
2019-03-23T20:17:44.963Z,7.23
2019-03-23T20:20:16.229Z,6.97
2019-03-23T20:22:45.727Z,7.08
2019-03-23T20:25:15.339Z,7.00
2019-03-23T20:27:44.829Z,7.13
2019-03-23T20:30:15.125Z,6.83
2019-03-23T20:32:44.704Z,7.01
2019-03-23T20:35:14.620Z,6.93
2019-03-23T20:37:44.200Z,7.09
2019-03-23T20:40:13.946Z,6.92
2019-03-23T20:42:43.942Z,6.97
2019-03-23T20:45:15.392Z,6.86
2019-03-23T20:47:45.061Z,6.93
2019-03-23T20:50:18.144Z,6.94
2019-03-23T20:52:47.638Z,6.63
2019-03-23T20:55:26.232Z,6.65
2019-03-23T20:57:56.088Z,6.74
2019-03-23T21:00:25.888Z,6.63
2019-03-23T21:02:55.259Z,6.81
2019-03-23T21:05:33.061Z,6.59
2019-03-23T21:07:55.755Z,6.70
2019-03-23T21:10:40.317Z,6.64
2019-03-23T21:13:11.195Z,6.41
2019-03-23T21:15:40.564Z,6.57
2019-03-23T21:18:09.989Z,6.52
2019-03-23T21:20:39.421Z,6.53
2019-03-23T21:23:09.133Z,6.51
2019-03-23T21:25:38.486Z,6.66
2019-03-23T21:28:07.855Z,6.29
2019-03-23T21:30:37.484Z,6.48
2019-03-23T21:33:06.903Z,6.63
2019-03-23T21:35:36.381Z,6.42
2019-03-23T21:38:06.317Z,6.28
2019-03-23T21:40:35.853Z,6.34
2019-03-23T21:43:08.657Z,6.52
2019-03-23T21:45:38.119Z,6.48
2019-03-23T21:48:07.582Z,6.46
2019-03-23T21:50:47.121Z,6.17
2019-03-23T21:53:08.775Z,6.37
2019-03-23T21:55:38.182Z,6.38
2019-03-23T21:58:07.702Z,6.44
2019-03-23T22:00:37.457Z,6.36
2019-03-23T22:03:06.885Z,6.38
2019-03-23T22:05:36.621Z,6.35
2019-03-23T22:08:06.006Z,6.21
2019-03-23T22:10:35.475Z,6.09
2019-03-23T22:13:04.935Z,6.25
2019-03-23T22:15:35.031Z,6.24
2019-03-23T22:18:04.675Z,6.27
2019-03-23T22:20:34.249Z,6.09
2019-03-23T22:23:04.103Z,6.21
2019-03-23T22:25:33.544Z,6.08
2019-03-23T22:28:03.016Z,5.89
2019-03-23T22:30:32.538Z,6.15
2019-03-23T22:33:03.168Z,5.80
2019-03-23T22:35:32.656Z,6.00
2019-03-23T22:38:02.563Z,6.13
2019-03-23T22:40:32.462Z,6.04
2019-03-23T22:43:02.105Z,6.14
2019-03-23T22:45:31.531Z,6.00
2019-03-23T22:48:01.290Z,6.08
2019-03-23T22:50:30.963Z,6.13
2019-03-23T22:53:00.458Z,6.04
2019-03-23T22:55:29.811Z,6.06
2019-03-23T22:58:10.518Z,5.87
2019-03-23T23:01:40.447Z,6.02
2019-03-23T23:05:10.792Z,5.80
2019-03-23T23:07:40.182Z,5.97
2019-03-23T23:10:09.938Z,5.83
2019-03-23T23:12:39.274Z,5.92
2019-03-23T23:15:09.491Z,5.97
2019-03-23T23:17:38.840Z,5.96
2019-03-23T23:20:08.494Z,5.60
2019-03-23T23:22:38.024Z,5.85
2019-03-23T23:25:07.837Z,5.82
2019-03-23T23:27:37.386Z,5.87
2019-03-23T23:30:08.533Z,5.53
2019-03-23T23:32:38.010Z,5.75
2019-03-23T23:35:09.448Z,5.58
2019-03-23T23:37:39.605Z,5.62
2019-03-23T23:40:09.351Z,5.76
2019-03-23T23:42:38.833Z,5.86
2019-03-23T23:45:15.282Z,5.82
2019-03-23T23:47:41.445Z,5.66
2019-03-23T23:50:11.353Z,5.41
2019-03-23T23:52:40.825Z,5.54
2019-03-23T23:55:11.834Z,5.80
2019-03-23T23:57:41.247Z,5.76
